sensor_id;sensor_type;location;lat;lon;timestamp;temperature;humidity
71367;DHT22;60030;52.274;8.040;2022-08-19T00:02:03;20.70;99.90
71367;DHT22;60030;52.274;8.040;2022-08-19T00:04:34;20.80;99.90
71367;DHT22;60030;52.274;8.040;2022-08-19T00:07:02;20.50;99.90
71367;DHT22;60030;52.274;8.040;2022-08-19T00:09:31;20.40;99.90
71367;DHT22;60030;52.274;8.040;2022-08-19T00:11:59;20.30;99.90
71367;DHT22;60030;52.274;8.040;2022-08-19T00:14:27;20.60;99.90
71367;DHT22;60030;52.274;8.040;2022-08-19T00:16:57;20.60;99.90
71367;DHT22;60030;52.274;8.040;2022-08-19T00:19:24;20.60;99.90
71367;DHT22;60030;52.274;8.040;2022-08-19T00:21:51;20.50;99.90
71367;DHT22;60030;52.274;8.040;2022-08-19T00:24:18;20.40;99.90
71367;DHT22;60030;52.274;8.040;2022-08-19T00:26:47;20.40;99.90
71367;DHT22;60030;52.274;8.040;2022-08-19T00:29:16;20.50;99.90
71367;DHT22;60030;52.274;8.040;2022-08-19T00:31:43;20.40;99.90
71367;DHT22;60030;52.274;8.040;2022-08-19T00:34:12;20.20;99.90
71367;DHT22;60030;52.274;8.040;2022-08-19T00:36:40;20.30;99.90
71367;DHT22;60030;52.274;8.040;2022-08-19T00:39:08;20.40;99.90
71367;DHT22;60030;52.274;8.040;2022-08-19T00:41:35;20.50;99.90
71367;DHT22;60030;52.274;8.040;2022-08-19T00:44:07;20.30;99.90
71367;DHT22;60030;52.274;8.040;2022-08-19T00:46:37;20.30;99.90
71367;DHT22;60030;52.274;8.040;2022-08-19T00:49:08;20.30;99.90
71367;DHT22;60030;52.274;8.040;2022-08-19T00:51:36;20.10;99.90
71367;DHT22;60030;52.274;8.040;2022-08-19T00:54:04;20.20;99.90
71367;DHT22;60030;52.274;8.040;2022-08-19T00:56:31;20.30;99.90
71367;DHT22;60030;52.274;8.040;2022-08-19T00:58:59;20.20;99.90
71367;DHT22;60030;52.274;8.040;2022-08-19T01:01:29;20.20;99.90
71367;DHT22;60030;52.274;8.040;2022-08-19T01:03:56;20.30;99.90
71367;DHT22;60030;52.274;8.040;2022-08-19T01:06:23;20.30;99.90
71367;DHT22;60030;52.274;8.040;2022-08-19T01:08:50;20.10;99.90
71367;DHT22;60030;52.274;8.040;2022-08-19T01:11:17;20.20;99.90
71367;DHT22;60030;52.274;8.040;2022-08-19T01:13:45;20.10;99.90
71367;DHT22;60030;52.274;8.040;2022-08-19T01:16:13;20.10;99.90
71367;DHT22;60030;52.274;8.040;2022-08-19T01:18:42;20.00;99.90
71367;DHT22;60030;52.274;8.040;2022-08-19T01:21:16;20.00;99.90
71367;DHT22;60030;52.274;8.040;2022-08-19T01:23:46;20.10;99.90
71367;DHT22;60030;52.274;8.040;2022-08-19T01:26:15;20.20;99.90
71367;DHT22;60030;52.274;8.040;2022-08-19T01:28:44;20.10;99.90
71367;DHT22;60030;52.274;8.040;2022-08-19T01:31:16;20.00;99.90
71367;DHT22;60030;52.274;8.040;2022-08-19T01:33:44;20.10;99.90
71367;DHT22;60030;52.274;8.040;2022-08-19T01:36:14;20.20;99.90
71367;DHT22;60030;52.274;8.040;2022-08-19T01:38:43;19.90;99.90
71367;DHT22;60030;52.274;8.040;2022-08-19T01:41:13;19.80;99.90
71367;DHT22;60030;52.274;8.040;2022-08-19T01:43:40;19.80;99.90
71367;DHT22;60030;52.274;8.040;2022-08-19T01:46:08;19.90;99.90
71367;DHT22;60030;52.274;8.040;2022-08-19T01:48:38;20.00;99.90
71367;DHT22;60030;52.274;8.040;2022-08-19T01:51:06;19.90;99.90
71367;DHT22;60030;52.274;8.040;2022-08-19T01:53:34;20.00;99.90
71367;DHT22;60030;52.274;8.040;2022-08-19T01:56:03;20.00;99.90
71367;DHT22;60030;52.274;8.040;2022-08-19T01:58:40;19.90;99.90
71367;DHT22;60030;52.274;8.040;2022-08-19T02:01:08;20.00;99.90
71367;DHT22;60030;52.274;8.040;2022-08-19T02:03:35;19.80;99.90
71367;DHT22;60030;52.274;8.040;2022-08-19T02:06:03;19.80;99.90
71367;DHT22;60030;52.274;8.040;2022-08-19T02:08:32;19.90;99.90
71367;DHT22;60030;52.274;8.040;2022-08-19T02:11:00;20.00;99.90
71367;DHT22;60030;52.274;8.040;2022-08-19T02:13:27;19.90;99.90
71367;DHT22;60030;52.274;8.040;2022-08-19T02:15:56;19.90;99.90
71367;DHT22;60030;52.274;8.040;2022-08-19T02:18:23;19.90;99.90
71367;DHT22;60030;52.274;8.040;2022-08-19T02:20:50;19.90;99.90
71367;DHT22;60030;52.274;8.040;2022-08-19T02:23:17;19.90;99.90
71367;DHT22;60030;52.274;8.040;2022-08-19T02:25:46;19.90;99.90
71367;DHT22;60030;52.274;8.040;2022-08-19T02:28:13;19.90;99.90
71367;DHT22;60030;52.274;8.040;2022-08-19T02:30:42;19.90;99.90
71367;DHT22;60030;52.274;8.040;2022-08-19T02:33:10;19.80;99.90
71367;DHT22;60030;52.274;8.040;2022-08-19T02:35:41;19.70;99.90
71367;DHT22;60030;52.274;8.040;2022-08-19T02:38:08;19.70;99.90
71367;DHT22;60030;52.274;8.040;2022-08-19T02:40:55;19.60;99.90
71367;DHT22;60030;52.274;8.040;2022-08-19T02:43:23;19.70;99.90
71367;DHT22;60030;52.274;8.040;2022-08-19T02:45:51;19.70;99.90
71367;DHT22;60030;52.274;8.040;2022-08-19T02:48:21;19.70;99.90
71367;DHT22;60030;52.274;8.040;2022-08-19T02:50:50;19.70;99.90
71367;DHT22;60030;52.274;8.040;2022-08-19T02:53:21;19.70;99.90
71367;DHT22;60030;52.274;8.040;2022-08-19T02:55:49;19.50;99.90
71367;DHT22;60030;52.274;8.040;2022-08-19T02:58:16;19.50;99.90
71367;DHT22;60030;52.274;8.040;2022-08-19T03:00:46;19.40;99.90
71367;DHT22;60030;52.274;8.040;2022-08-19T03:03:14;19.40;99.90
71367;DHT22;60030;52.274;8.040;2022-08-19T03:05:43;19.40;99.90
71367;DHT22;60030;52.274;8.040;2022-08-19T03:08:11;19.40;99.90
71367;DHT22;60030;52.274;8.040;2022-08-19T03:10:43;19.50;99.90
71367;DHT22;60030;52.274;8.040;2022-08-19T03:13:13;19.50;99.90
71367;DHT22;60030;52.274;8.040;2022-08-19T03:15:41;19.50;99.90
71367;DHT22;60030;52.274;8.040;2022-08-19T03:18:09;19.50;99.90
71367;DHT22;60030;52.274;8.040;2022-08-19T03:20:42;19.20;99.90
71367;DHT22;60030;52.274;8.040;2022-08-19T03:23:10;19.10;99.90
71367;DHT22;60030;52.274;8.040;2022-08-19T03:25:39;19.20;99.90
71367;DHT22;60030;52.274;8.040;2022-08-19T03:28:07;19.30;99.90
71367;DHT22;60030;52.274;8.040;2022-08-19T03:30:34;19.40;99.90
71367;DHT22;60030;52.274;8.040;2022-08-19T03:33:02;19.30;99.90
71367;DHT22;60030;52.274;8.040;2022-08-19T03:35:29;19.30;99.90
71367;DHT22;60030;52.274;8.040;2022-08-19T03:37:58;19.20;99.90
71367;DHT22;60030;52.274;8.040;2022-08-19T03:40:26;19.10;99.90
71367;DHT22;60030;52.274;8.040;2022-08-19T03:42:53;19.30;99.90
71367;DHT22;60030;52.274;8.040;2022-08-19T03:45:20;19.20;99.90
71367;DHT22;60030;52.274;8.040;2022-08-19T03:47:47;19.10;99.90
71367;DHT22;60030;52.274;8.040;2022-08-19T03:50:14;19.10;99.90
71367;DHT22;60030;52.274;8.040;2022-08-19T03:52:41;19.00;99.90
71367;DHT22;60030;52.274;8.040;2022-08-19T03:55:10;19.00;99.90
71367;DHT22;60030;52.274;8.040;2022-08-19T03:57:37;19.10;99.90
71367;DHT22;60030;52.274;8.040;2022-08-19T04:00:05;19.00;99.90
71367;DHT22;60030;52.274;8.040;2022-08-19T04:02:33;18.90;99.90
71367;DHT22;60030;52.274;8.040;2022-08-19T04:05:00;18.90;99.90
71367;DHT22;60030;52.274;8.040;2022-08-19T04:07:27;19.00;99.90
71367;DHT22;60030;52.274;8.040;2022-08-19T04:09:54;19.00;99.90
71367;DHT22;60030;52.274;8.040;2022-08-19T04:12:23;19.00;99.90
71367;DHT22;60030;52.274;8.040;2022-08-19T04:14:50;19.00;99.90
71367;DHT22;60030;52.274;8.040;2022-08-19T04:17:17;19.00;99.90
71367;DHT22;60030;52.274;8.040;2022-08-19T04:19:44;19.00;99.90
71367;DHT22;60030;52.274;8.040;2022-08-19T04:22:11;19.00;99.90
71367;DHT22;60030;52.274;8.040;2022-08-19T04:24:38;19.00;99.90
71367;DHT22;60030;52.274;8.040;2022-08-19T04:27:06;19.00;99.90
71367;DHT22;60030;52.274;8.040;2022-08-19T04:29:34;19.00;99.90
71367;DHT22;60030;52.274;8.040;2022-08-19T04:32:05;19.00;99.90
71367;DHT22;60030;52.274;8.040;2022-08-19T04:34:32;19.00;99.90
71367;DHT22;60030;52.274;8.040;2022-08-19T04:36:59;19.10;99.90
71367;DHT22;60030;52.274;8.040;2022-08-19T04:39:29;19.10;99.90
71367;DHT22;60030;52.274;8.040;2022-08-19T04:42:10;19.10;99.90
71367;DHT22;60030;52.274;8.040;2022-08-19T04:44:57;19.10;99.90
71367;DHT22;60030;52.274;8.040;2022-08-19T04:47:24;19.10;99.90
71367;DHT22;60030;52.274;8.040;2022-08-19T04:49:51;19.10;99.90
71367;DHT22;60030;52.274;8.040;2022-08-19T04:52:18;19.20;99.90
71367;DHT22;60030;52.274;8.040;2022-08-19T04:54:45;19.20;99.90
71367;DHT22;60030;52.274;8.040;2022-08-19T04:57:12;19.10;99.90
71367;DHT22;60030;52.274;8.040;2022-08-19T04:59:39;19.10;99.90
71367;DHT22;60030;52.274;8.040;2022-08-19T05:02:08;19.10;99.90
71367;DHT22;60030;52.274;8.040;2022-08-19T05:04:36;19.10;99.90
71367;DHT22;60030;52.274;8.040;2022-08-19T05:07:05;19.20;99.90
71367;DHT22;60030;52.274;8.040;2022-08-19T05:09:32;19.20;99.90
71367;DHT22;60030;52.274;8.040;2022-08-19T05:12:01;19.10;99.90
71367;DHT22;60030;52.274;8.040;2022-08-19T05:14:29;19.20;99.90
71367;DHT22;60030;52.274;8.040;2022-08-19T05:16:56;19.10;99.90
71367;DHT22;60030;52.274;8.040;2022-08-19T05:19:24;19.00;99.90
71367;DHT22;60030;52.274;8.040;2022-08-19T05:22:09;19.10;99.90
71367;DHT22;60030;52.274;8.040;2022-08-19T05:24:53;19.00;99.90
71367;DHT22;60030;52.274;8.040;2022-08-19T05:27:20;19.00;99.90
71367;DHT22;60030;52.274;8.040;2022-08-19T05:29:47;19.10;99.90
71367;DHT22;60030;52.274;8.040;2022-08-19T05:32:15;18.90;99.90
71367;DHT22;60030;52.274;8.040;2022-08-19T05:34:43;18.90;99.90
71367;DHT22;60030;52.274;8.040;2022-08-19T05:37:10;19.00;99.90
71367;DHT22;60030;52.274;8.040;2022-08-19T05:39:37;19.00;99.90
71367;DHT22;60030;52.274;8.040;2022-08-19T05:42:08;19.00;99.90
71367;DHT22;60030;52.274;8.040;2022-08-19T05:44:38;19.20;99.90
71367;DHT22;60030;52.274;8.040;2022-08-19T05:47:10;19.20;99.90
71367;DHT22;60030;52.274;8.040;2022-08-19T05:49:38;19.00;99.90
71367;DHT22;60030;52.274;8.040;2022-08-19T05:52:08;19.00;99.90
71367;DHT22;60030;52.274;8.040;2022-08-19T05:54:37;19.00;99.90
71367;DHT22;60030;52.274;8.040;2022-08-19T05:57:06;19.10;99.90
71367;DHT22;60030;52.274;8.040;2022-08-19T05:59:34;19.20;99.90
71367;DHT22;60030;52.274;8.040;2022-08-19T06:02:02;19.30;99.90
71367;DHT22;60030;52.274;8.040;2022-08-19T06:04:31;19.40;99.90
71367;DHT22;60030;52.274;8.040;2022-08-19T06:06:58;19.20;99.90
71367;DHT22;60030;52.274;8.040;2022-08-19T06:09:28;19.20;99.90
71367;DHT22;60030;52.274;8.040;2022-08-19T06:11:57;19.30;99.90
71367;DHT22;60030;52.274;8.040;2022-08-19T06:14:28;19.40;99.90
71367;DHT22;60030;52.274;8.040;2022-08-19T06:16:56;19.30;99.90
71367;DHT22;60030;52.274;8.040;2022-08-19T06:19:26;19.20;99.90
71367;DHT22;60030;52.274;8.040;2022-08-19T06:21:56;19.30;99.90
71367;DHT22;60030;52.274;8.040;2022-08-19T06:24:25;19.50;99.90
71367;DHT22;60030;52.274;8.040;2022-08-19T06:26:55;19.60;99.90
71367;DHT22;60030;52.274;8.040;2022-08-19T06:29:25;19.60;99.90
71367;DHT22;60030;52.274;8.040;2022-08-19T06:31:54;19.60;99.90
71367;DHT22;60030;52.274;8.040;2022-08-19T06:34:22;19.50;99.90
71367;DHT22;60030;52.274;8.040;2022-08-19T06:36:51;19.60;99.90
71367;DHT22;60030;52.274;8.040;2022-08-19T06:39:20;19.60;99.90
71367;DHT22;60030;52.274;8.040;2022-08-19T06:41:50;19.70;99.90
71367;DHT22;60030;52.274;8.040;2022-08-19T06:44:20;19.80;99.90
71367;DHT22;60030;52.274;8.040;2022-08-19T06:46:49;19.80;99.90
71367;DHT22;60030;52.274;8.040;2022-08-19T06:49:17;19.80;99.90
71367;DHT22;60030;52.274;8.040;2022-08-19T06:51:45;19.90;99.90
71367;DHT22;60030;52.274;8.040;2022-08-19T06:54:14;19.80;99.90
71367;DHT22;60030;52.274;8.040;2022-08-19T06:56:42;19.90;99.90
71367;DHT22;60030;52.274;8.040;2022-08-19T06:59:13;20.00;99.90
71367;DHT22;60030;52.274;8.040;2022-08-19T07:01:43;20.00;99.90
71367;DHT22;60030;52.274;8.040;2022-08-19T07:04:13;20.00;99.90
71367;DHT22;60030;52.274;8.040;2022-08-19T07:06:41;20.10;99.90
71367;DHT22;60030;52.274;8.040;2022-08-19T07:09:10;20.20;99.90
71367;DHT22;60030;52.274;8.040;2022-08-19T07:11:38;20.30;99.90
71367;DHT22;60030;52.274;8.040;2022-08-19T07:14:05;20.30;99.90
71367;DHT22;60030;52.274;8.040;2022-08-19T07:16:32;20.30;99.90
71367;DHT22;60030;52.274;8.040;2022-08-19T07:19:01;20.30;99.90
71367;DHT22;60030;52.274;8.040;2022-08-19T07:21:28;20.40;99.90
71367;DHT22;60030;52.274;8.040;2022-08-19T07:23:56;20.40;99.90
71367;DHT22;60030;52.274;8.040;2022-08-19T07:26:27;20.50;99.90
71367;DHT22;60030;52.274;8.040;2022-08-19T07:28:55;20.50;99.90
71367;DHT22;60030;52.274;8.040;2022-08-19T07:31:24;20.60;99.90
71367;DHT22;60030;52.274;8.040;2022-08-19T07:33:53;20.70;99.90
71367;DHT22;60030;52.274;8.040;2022-08-19T07:36:24;20.70;99.90
71367;DHT22;60030;52.274;8.040;2022-08-19T07:38:59;20.80;99.90
71367;DHT22;60030;52.274;8.040;2022-08-19T07:41:28;20.80;99.90
71367;DHT22;60030;52.274;8.040;2022-08-19T07:43:58;20.90;99.90
71367;DHT22;60030;52.274;8.040;2022-08-19T07:46:29;20.90;99.90
71367;DHT22;60030;52.274;8.040;2022-08-19T07:48:57;20.90;99.90
71367;DHT22;60030;52.274;8.040;2022-08-19T07:51:26;21.00;99.90
71367;DHT22;60030;52.274;8.040;2022-08-19T07:53:54;21.00;99.90
71367;DHT22;60030;52.274;8.040;2022-08-19T07:56:22;21.00;99.90
71367;DHT22;60030;52.274;8.040;2022-08-19T07:58:50;21.10;99.90
71367;DHT22;60030;52.274;8.040;2022-08-19T08:01:20;21.10;99.90
71367;DHT22;60030;52.274;8.040;2022-08-19T08:03:47;21.20;99.90
71367;DHT22;60030;52.274;8.040;2022-08-19T08:06:34;21.30;99.90
71367;DHT22;60030;52.274;8.040;2022-08-19T08:09:22;21.30;99.90
71367;DHT22;60030;52.274;8.040;2022-08-19T08:11:52;21.40;99.90
71367;DHT22;60030;52.274;8.040;2022-08-19T08:14:22;21.30;99.90
71367;DHT22;60030;52.274;8.040;2022-08-19T08:16:50;21.40;99.90
71367;DHT22;60030;52.274;8.040;2022-08-19T08:19:18;21.60;99.90
71367;DHT22;60030;52.274;8.040;2022-08-19T08:21:47;21.70;99.90
71367;DHT22;60030;52.274;8.040;2022-08-19T08:24:16;21.80;99.90
71367;DHT22;60030;52.274;8.040;2022-08-19T08:26:43;22.00;99.90
71367;DHT22;60030;52.274;8.040;2022-08-19T08:29:11;22.00;99.90
71367;DHT22;60030;52.274;8.040;2022-08-19T08:31:39;22.10;99.90
71367;DHT22;60030;52.274;8.040;2022-08-19T08:34:07;22.10;99.90
71367;DHT22;60030;52.274;8.040;2022-08-19T08:36:37;22.00;99.90
71367;DHT22;60030;52.274;8.040;2022-08-19T08:39:09;22.00;99.90
71367;DHT22;60030;52.274;8.040;2022-08-19T08:41:43;22.00;99.90
71367;DHT22;60030;52.274;8.040;2022-08-19T08:44:15;22.10;99.90
71367;DHT22;60030;52.274;8.040;2022-08-19T08:46:47;22.20;99.90
71367;DHT22;60030;52.274;8.040;2022-08-19T08:49:24;22.30;99.90
71367;DHT22;60030;52.274;8.040;2022-08-19T08:51:59;22.50;99.90
71367;DHT22;60030;52.274;8.040;2022-08-19T08:54:33;22.60;99.90
71367;DHT22;60030;52.274;8.040;2022-08-19T08:57:03;22.80;99.90
71367;DHT22;60030;52.274;8.040;2022-08-19T08:59:35;22.70;99.90
71367;DHT22;60030;52.274;8.040;2022-08-19T09:02:03;22.80;99.90
71367;DHT22;60030;52.274;8.040;2022-08-19T09:04:30;22.90;99.90
71367;DHT22;60030;52.274;8.040;2022-08-19T09:07:09;22.90;99.90
71367;DHT22;60030;52.274;8.040;2022-08-19T09:09:42;22.80;99.90
71367;DHT22;60030;52.274;8.040;2022-08-19T09:12:15;22.90;99.90
71367;DHT22;60030;52.274;8.040;2022-08-19T09:14:48;23.00;99.90
71367;DHT22;60030;52.274;8.040;2022-08-19T09:17:18;23.10;99.90
71367;DHT22;60030;52.274;8.040;2022-08-19T09:19:52;23.30;99.90
71367;DHT22;60030;52.274;8.040;2022-08-19T09:22:19;23.40;99.90
71367;DHT22;60030;52.274;8.040;2022-08-19T09:24:50;23.30;99.90
71367;DHT22;60030;52.274;8.040;2022-08-19T09:27:19;23.40;99.90
71367;DHT22;60030;52.274;8.040;2022-08-19T09:29:47;23.50;99.90
71367;DHT22;60030;52.274;8.040;2022-08-19T09:32:14;23.60;99.90
71367;DHT22;60030;52.274;8.040;2022-08-19T09:34:43;23.70;99.90
71367;DHT22;60030;52.274;8.040;2022-08-19T09:37:10;23.70;99.90
71367;DHT22;60030;52.274;8.040;2022-08-19T09:39:37;23.60;99.90
71367;DHT22;60030;52.274;8.040;2022-08-19T09:42:08;23.60;99.90
71367;DHT22;60030;52.274;8.040;2022-08-19T09:44:38;23.60;99.90
71367;DHT22;60030;52.274;8.040;2022-08-19T09:47:05;23.50;99.90
71367;DHT22;60030;52.274;8.040;2022-08-19T09:49:33;23.70;99.90
71367;DHT22;60030;52.274;8.040;2022-08-19T09:52:00;23.90;99.90
71367;DHT22;60030;52.274;8.040;2022-08-19T09:54:28;23.90;99.90
71367;DHT22;60030;52.274;8.040;2022-08-19T09:56:55;24.20;99.90
71367;DHT22;60030;52.274;8.040;2022-08-19T09:59:27;24.60;99.90
71367;DHT22;60030;52.274;8.040;2022-08-19T10:01:55;24.80;99.90
71367;DHT22;60030;52.274;8.040;2022-08-19T10:04:22;24.90;99.90
71367;DHT22;60030;52.274;8.040;2022-08-19T10:07:09;25.00;99.90
71367;DHT22;60030;52.274;8.040;2022-08-19T10:09:36;25.00;99.90
71367;DHT22;60030;52.274;8.040;2022-08-19T10:12:04;25.00;99.90
71367;DHT22;60030;52.274;8.040;2022-08-19T10:14:33;25.00;99.90
71367;DHT22;60030;52.274;8.040;2022-08-19T10:17:01;25.00;99.90
71367;DHT22;60030;52.274;8.040;2022-08-19T10:19:29;24.80;99.90
71367;DHT22;60030;52.274;8.040;2022-08-19T10:22:03;25.10;99.90
71367;DHT22;60030;52.274;8.040;2022-08-19T10:24:30;25.30;99.90
71367;DHT22;60030;52.274;8.040;2022-08-19T10:26:57;25.30;99.90
71367;DHT22;60030;52.274;8.040;2022-08-19T10:29:25;25.30;99.90
71367;DHT22;60030;52.274;8.040;2022-08-19T10:31:55;25.20;99.90
71367;DHT22;60030;52.274;8.040;2022-08-19T10:34:24;25.60;99.90
71367;DHT22;60030;52.274;8.040;2022-08-19T10:36:51;25.70;99.90
71367;DHT22;60030;52.274;8.040;2022-08-19T10:39:18;26.30;99.90
71367;DHT22;60030;52.274;8.040;2022-08-19T10:41:45;26.40;99.90
71367;DHT22;60030;52.274;8.040;2022-08-19T10:44:12;26.40;99.90
71367;DHT22;60030;52.274;8.040;2022-08-19T10:46:42;26.60;99.90
71367;DHT22;60030;52.274;8.040;2022-08-19T10:49:14;26.30;99.70
71367;DHT22;60030;52.274;8.040;2022-08-19T10:51:41;26.20;99.50
71367;DHT22;60030;52.274;8.040;2022-08-19T10:54:33;26.40;99.40
71367;DHT22;60030;52.274;8.040;2022-08-19T10:57:18;26.40;99.70
71367;DHT22;60030;52.274;8.040;2022-08-19T10:59:45;26.10;99.30
71367;DHT22;60030;52.274;8.040;2022-08-19T11:02:12;26.00;99.20
71367;DHT22;60030;52.274;8.040;2022-08-19T11:04:41;26.00;99.40
71367;DHT22;60030;52.274;8.040;2022-08-19T11:07:08;26.20;98.80
71367;DHT22;60030;52.274;8.040;2022-08-19T11:09:38;26.50;98.10
71367;DHT22;60030;52.274;8.040;2022-08-19T11:12:07;27.10;97.60
71367;DHT22;60030;52.274;8.040;2022-08-19T11:14:36;27.20;95.20
71367;DHT22;60030;52.274;8.040;2022-08-19T11:17:04;27.40;95.10
71367;DHT22;60030;52.274;8.040;2022-08-19T11:19:32;27.60;93.90
71367;DHT22;60030;52.274;8.040;2022-08-19T11:22:00;27.80;92.70
71367;DHT22;60030;52.274;8.040;2022-08-19T11:24:29;28.30;92.70
71367;DHT22;60030;52.274;8.040;2022-08-19T11:27:06;27.80;92.80
71367;DHT22;60030;52.274;8.040;2022-08-19T11:29:35;27.60;91.00
71367;DHT22;60030;52.274;8.040;2022-08-19T11:32:05;28.30;91.10
71367;DHT22;60030;52.274;8.040;2022-08-19T11:34:33;28.10;89.70
71367;DHT22;60030;52.274;8.040;2022-08-19T11:37:03;27.90;90.30
71367;DHT22;60030;52.274;8.040;2022-08-19T11:39:32;28.00;89.80
71367;DHT22;60030;52.274;8.040;2022-08-19T11:42:01;28.50;88.60
71367;DHT22;60030;52.274;8.040;2022-08-19T11:44:28;28.70;87.20
71367;DHT22;60030;52.274;8.040;2022-08-19T11:46:56;28.70;86.30
71367;DHT22;60030;52.274;8.040;2022-08-19T11:49:23;28.30;87.50
71367;DHT22;60030;52.274;8.040;2022-08-19T11:51:50;28.40;87.60
71367;DHT22;60030;52.274;8.040;2022-08-19T11:54:18;28.10;87.70
71367;DHT22;60030;52.274;8.040;2022-08-19T11:56:45;28.10;87.80
71367;DHT22;60030;52.274;8.040;2022-08-19T11:59:14;28.10;88.00
71367;DHT22;60030;52.274;8.040;2022-08-19T12:01:42;28.50;88.00
71367;DHT22;60030;52.274;8.040;2022-08-19T12:04:09;28.70;86.50
71367;DHT22;60030;52.274;8.040;2022-08-19T12:06:39;28.80;86.40
71367;DHT22;60030;52.274;8.040;2022-08-19T12:09:08;28.90;85.10
71367;DHT22;60030;52.274;8.040;2022-08-19T12:11:38;28.90;85.40
71367;DHT22;60030;52.274;8.040;2022-08-19T12:14:08;28.60;85.80
71367;DHT22;60030;52.274;8.040;2022-08-19T12:16:36;29.10;85.00
71367;DHT22;60030;52.274;8.040;2022-08-19T12:19:04;29.90;82.90
71367;DHT22;60030;52.274;8.040;2022-08-19T12:21:33;31.10;75.50
71367;DHT22;60030;52.274;8.040;2022-08-19T12:24:02;31.70;70.80
71367;DHT22;60030;52.274;8.040;2022-08-19T12:26:30;32.00;70.00
71367;DHT22;60030;52.274;8.040;2022-08-19T12:28:59;32.00;68.10
71367;DHT22;60030;52.274;8.040;2022-08-19T12:31:27;32.10;68.30
71367;DHT22;60030;52.274;8.040;2022-08-19T12:33:55;31.90;67.80
71367;DHT22;60030;52.274;8.040;2022-08-19T12:36:23;31.20;69.10
71367;DHT22;60030;52.274;8.040;2022-08-19T12:38:51;31.10;69.70
71367;DHT22;60030;52.274;8.040;2022-08-19T12:41:18;31.20;68.10
71367;DHT22;60030;52.274;8.040;2022-08-19T12:43:48;31.40;68.20
71367;DHT22;60030;52.274;8.040;2022-08-19T12:46:18;31.70;67.70
71367;DHT22;60030;52.274;8.040;2022-08-19T12:48:46;31.40;66.60
71367;DHT22;60030;52.274;8.040;2022-08-19T12:51:15;31.40;66.80
71367;DHT22;60030;52.274;8.040;2022-08-19T12:53:44;31.20;66.70
71367;DHT22;60030;52.274;8.040;2022-08-19T12:56:11;31.30;67.10
71367;DHT22;60030;52.274;8.040;2022-08-19T12:58:40;31.40;66.50
71367;DHT22;60030;52.274;8.040;2022-08-19T13:01:09;30.90;66.70
71367;DHT22;60030;52.274;8.040;2022-08-19T13:03:38;30.70;65.50
71367;DHT22;60030;52.274;8.040;2022-08-19T13:06:07;30.90;65.40
71367;DHT22;60030;52.274;8.040;2022-08-19T13:08:34;30.30;67.80
71367;DHT22;60030;52.274;8.040;2022-08-19T13:11:09;29.90;68.90
71367;DHT22;60030;52.274;8.040;2022-08-19T13:13:39;29.60;70.60
71367;DHT22;60030;52.274;8.040;2022-08-19T13:16:07;29.90;70.70
71367;DHT22;60030;52.274;8.040;2022-08-19T13:18:35;30.00;70.00
71367;DHT22;60030;52.274;8.040;2022-08-19T13:21:05;30.60;68.80
71367;DHT22;60030;52.274;8.040;2022-08-19T13:23:34;31.10;66.20
71367;DHT22;60030;52.274;8.040;2022-08-19T13:26:05;31.70;65.20
71367;DHT22;60030;52.274;8.040;2022-08-19T13:28:33;31.60;63.70
71367;DHT22;60030;52.274;8.040;2022-08-19T13:31:16;31.50;63.70
71367;DHT22;60030;52.274;8.040;2022-08-19T13:34:00;31.30;63.40
71367;DHT22;60030;52.274;8.040;2022-08-19T13:36:29;31.70;61.70
71367;DHT22;60030;52.274;8.040;2022-08-19T13:38:56;32.60;59.00
71367;DHT22;60030;52.274;8.040;2022-08-19T13:41:23;33.00;57.40
71367;DHT22;60030;52.274;8.040;2022-08-19T13:43:51;33.20;56.70
71367;DHT22;60030;52.274;8.040;2022-08-19T13:46:18;33.80;55.70
71367;DHT22;60030;52.274;8.040;2022-08-19T13:48:46;33.90;55.10
71367;DHT22;60030;52.274;8.040;2022-08-19T13:51:14;33.60;55.70
71367;DHT22;60030;52.274;8.040;2022-08-19T13:53:43;33.90;55.00
71367;DHT22;60030;52.274;8.040;2022-08-19T13:56:13;34.70;54.80
71367;DHT22;60030;52.274;8.040;2022-08-19T13:58:43;34.70;54.80
71367;DHT22;60030;52.274;8.040;2022-08-19T14:01:10;35.60;55.40
71367;DHT22;60030;52.274;8.040;2022-08-19T14:03:38;33.70;55.40
71367;DHT22;60030;52.274;8.040;2022-08-19T14:06:05;34.40;55.70
71367;DHT22;60030;52.274;8.040;2022-08-19T14:08:32;33.60;55.90
71367;DHT22;60030;52.274;8.040;2022-08-19T14:11:01;33.80;56.00
71367;DHT22;60030;52.274;8.040;2022-08-19T14:13:28;34.80;54.10
71367;DHT22;60030;52.274;8.040;2022-08-19T14:15:55;35.60;53.00
71367;DHT22;60030;52.274;8.040;2022-08-19T14:18:22;36.00;52.50
71367;DHT22;60030;52.274;8.040;2022-08-19T14:20:50;36.60;51.30
71367;DHT22;60030;52.274;8.040;2022-08-19T14:23:18;35.90;51.90
71367;DHT22;60030;52.274;8.040;2022-08-19T14:25:45;36.50;51.00
71367;DHT22;60030;52.274;8.040;2022-08-19T14:28:14;36.10;50.80
71367;DHT22;60030;52.274;8.040;2022-08-19T14:30:42;36.50;50.30
71367;DHT22;60030;52.274;8.040;2022-08-19T14:33:10;35.60;51.30
71367;DHT22;60030;52.274;8.040;2022-08-19T14:35:37;33.70;54.10
71367;DHT22;60030;52.274;8.040;2022-08-19T14:38:15;32.90;55.60
71367;DHT22;60030;52.274;8.040;2022-08-19T14:40:43;32.60;56.10
71367;DHT22;60030;52.274;8.040;2022-08-19T14:43:10;32.30;56.70
71367;DHT22;60030;52.274;8.040;2022-08-19T14:45:40;32.30;56.60
71367;DHT22;60030;52.274;8.040;2022-08-19T14:48:08;31.80;57.20
71367;DHT22;60030;52.274;8.040;2022-08-19T14:50:36;32.00;58.00
71367;DHT22;60030;52.274;8.040;2022-08-19T14:53:05;32.70;56.20
71367;DHT22;60030;52.274;8.040;2022-08-19T14:55:33;32.20;57.00
71367;DHT22;60030;52.274;8.040;2022-08-19T14:58:00;31.70;57.90
71367;DHT22;60030;52.274;8.040;2022-08-19T15:00:27;31.30;58.30
71367;DHT22;60030;52.274;8.040;2022-08-19T15:02:56;31.00;59.10
71367;DHT22;60030;52.274;8.040;2022-08-19T15:05:24;30.70;59.40
71367;DHT22;60030;52.274;8.040;2022-08-19T15:07:52;30.30;60.30
71367;DHT22;60030;52.274;8.040;2022-08-19T15:10:23;30.10;61.30
71367;DHT22;60030;52.274;8.040;2022-08-19T15:12:50;30.10;61.60
71367;DHT22;60030;52.274;8.040;2022-08-19T15:15:18;29.80;62.00
71367;DHT22;60030;52.274;8.040;2022-08-19T15:17:47;29.80;62.50
71367;DHT22;60030;52.274;8.040;2022-08-19T15:20:18;29.60;62.90
71367;DHT22;60030;52.274;8.040;2022-08-19T15:22:49;29.50;63.30
71367;DHT22;60030;52.274;8.040;2022-08-19T15:25:17;29.50;62.60
71367;DHT22;60030;52.274;8.040;2022-08-19T15:27:46;29.40;62.80
71367;DHT22;60030;52.274;8.040;2022-08-19T15:30:20;29.40;63.60
71367;DHT22;60030;52.274;8.040;2022-08-19T15:32:48;29.30;65.00
71367;DHT22;60030;52.274;8.040;2022-08-19T15:35:17;29.20;63.80
71367;DHT22;60030;52.274;8.040;2022-08-19T15:37:47;28.80;65.20
71367;DHT22;60030;52.274;8.040;2022-08-19T15:40:15;28.60;66.50
71367;DHT22;60030;52.274;8.040;2022-08-19T15:42:42;28.60;67.00